sensor_id;sensor_type;location;lat;lon;timestamp;P1;P2;P0
44933;PMS3003;30667;43.614;1.442;2022-07-06T00:01:26;1.50;1.50;0.00
44933;PMS3003;30667;43.614;1.442;2022-07-06T00:03:51;2.00;2.00;0.00
44933;PMS3003;30667;43.614;1.442;2022-07-06T00:06:16;3.00;2.00;0.00
44933;PMS3003;30667;43.614;1.442;2022-07-06T00:08:42;1.25;1.25;0.00
44933;PMS3003;30667;43.614;1.442;2022-07-06T00:11:09;2.40;2.40;0.00
44933;PMS3003;30667;43.614;1.442;2022-07-06T00:13:35;1.00;1.00;0.00
44933;PMS3003;30667;43.614;1.442;2022-07-06T00:16:00;2.00;2.00;0.00
44933;PMS3003;30667;43.614;1.442;2022-07-06T00:18:26;3.75;3.00;1.00
44933;PMS3003;30667;43.614;1.442;2022-07-06T00:20:51;2.00;2.00;0.00
44933;PMS3003;30667;43.614;1.442;2022-07-06T00:23:17;2.00;2.00;0.00
44933;PMS3003;30667;43.614;1.442;2022-07-06T00:25:43;2.00;2.00;0.25
44933;PMS3003;30667;43.614;1.442;2022-07-06T00:28:08;3.00;2.25;0.25
44933;PMS3003;30667;43.614;1.442;2022-07-06T00:30:34;3.00;2.50;0.00
44933;PMS3003;30667;43.614;1.442;2022-07-06T00:32:59;3.00;2.00;1.00
44933;PMS3003;30667;43.614;1.442;2022-07-06T00:35:25;1.75;1.75;0.00
44933;PMS3003;30667;43.614;1.442;2022-07-06T00:37:50;1.00;1.00;0.00
44933;PMS3003;30667;43.614;1.442;2022-07-06T00:40:16;2.00;2.00;0.00
44933;PMS3003;30667;43.614;1.442;2022-07-06T00:42:43;2.00;2.00;0.00
44933;PMS3003;30667;43.614;1.442;2022-07-06T00:45:10;2.00;1.80;0.00
44933;PMS3003;30667;43.614;1.442;2022-07-06T00:47:37;2.40;2.40;0.00
44933;PMS3003;30667;43.614;1.442;2022-07-06T00:50:03;1.00;1.00;0.00
44933;PMS3003;30667;43.614;1.442;2022-07-06T00:52:39;1.00;1.00;0.00
44933;PMS3003;30667;43.614;1.442;2022-07-06T00:55:09;2.00;2.00;0.00
44933;PMS3003;30667;43.614;1.442;2022-07-06T00:57:35;2.00;2.00;0.60
44933;PMS3003;30667;43.614;1.442;2022-07-06T01:00:02;2.00;2.00;0.00
44933;PMS3003;30667;43.614;1.442;2022-07-06T01:02:32;2.00;1.60;0.00
44933;PMS3003;30667;43.614;1.442;2022-07-06T01:04:59;1.20;1.00;0.00
44933;PMS3003;30667;43.614;1.442;2022-07-06T01:07:24;3.00;3.00;1.00
44933;PMS3003;30667;43.614;1.442;2022-07-06T01:09:50;4.00;3.00;1.00
44933;PMS3003;30667;43.614;1.442;2022-07-06T01:12:16;1.25;1.00;0.00
44933;PMS3003;30667;43.614;1.442;2022-07-06T01:14:41;2.80;2.80;0.80
44933;PMS3003;30667;43.614;1.442;2022-07-06T01:17:07;2.40;2.40;0.60
44933;PMS3003;30667;43.614;1.442;2022-07-06T01:19:33;2.00;1.80;0.00
44933;PMS3003;30667;43.614;1.442;2022-07-06T01:21:59;3.00;3.00;1.00
44933;PMS3003;30667;43.614;1.442;2022-07-06T01:24:24;2.00;2.00;0.50
44933;PMS3003;30667;43.614;1.442;2022-07-06T01:26:50;3.80;2.80;1.00
44933;PMS3003;30667;43.614;1.442;2022-07-06T01:29:16;2.80;2.80;0.00
44933;PMS3003;30667;43.614;1.442;2022-07-06T01:31:46;2.20;2.20;0.80
44933;PMS3003;30667;43.614;1.442;2022-07-06T01:34:13;2.60;2.60;0.80
44933;PMS3003;30667;43.614;1.442;2022-07-06T01:36:40;2.80;2.80;0.80
44933;PMS3003;30667;43.614;1.442;2022-07-06T01:39:06;2.00;2.00;1.00
44933;PMS3003;30667;43.614;1.442;2022-07-06T01:41:33;3.60;2.40;0.80
44933;PMS3003;30667;43.614;1.442;2022-07-06T01:43:59;3.75;3.00;1.00
44933;PMS3003;30667;43.614;1.442;2022-07-06T01:46:24;3.00;3.00;1.25
44933;PMS3003;30667;43.614;1.442;2022-07-06T01:48:49;2.50;2.50;1.00
44933;PMS3003;30667;43.614;1.442;2022-07-06T01:51:15;3.00;3.00;1.00
44933;PMS3003;30667;43.614;1.442;2022-07-06T01:53:40;3.50;3.00;1.00
44933;PMS3003;30667;43.614;1.442;2022-07-06T01:56:06;2.20;2.00;0.20
44933;PMS3003;30667;43.614;1.442;2022-07-06T01:58:32;5.00;3.00;1.00
44933;PMS3003;30667;43.614;1.442;2022-07-06T02:00:57;5.00;3.25;1.00
44933;PMS3003;30667;43.614;1.442;2022-07-06T02:03:23;3.50;3.00;1.00
44933;PMS3003;30667;43.614;1.442;2022-07-06T02:05:48;4.75;3.00;1.00
44933;PMS3003;30667;43.614;1.442;2022-07-06T02:08:14;3.25;3.25;1.00
44933;PMS3003;30667;43.614;1.442;2022-07-06T02:10:39;3.50;3.50;1.00
44933;PMS3003;30667;43.614;1.442;2022-07-06T02:13:05;3.25;3.00;1.00
44933;PMS3003;30667;43.614;1.442;2022-07-06T02:15:31;3.00;2.00;0.25
44933;PMS3003;30667;43.614;1.442;2022-07-06T02:17:56;3.00;3.00;1.00
44933;PMS3003;30667;43.614;1.442;2022-07-06T02:20:22;3.00;3.00;1.75
44933;PMS3003;30667;43.614;1.442;2022-07-06T02:22:47;3.00;2.25;0.00
44933;PMS3003;30667;43.614;1.442;2022-07-06T02:25:12;3.00;3.00;1.00
44933;PMS3003;30667;43.614;1.442;2022-07-06T02:27:38;3.00;3.00;1.00
44933;PMS3003;30667;43.614;1.442;2022-07-06T02:30:04;3.25;3.00;1.00
44933;PMS3003;30667;43.614;1.442;2022-07-06T02:32:30;2.20;1.80;0.80
44933;PMS3003;30667;43.614;1.442;2022-07-06T02:34:55;3.50;3.25;1.50
44933;PMS3003;30667;43.614;1.442;2022-07-06T02:37:21;3.00;3.00;1.00
44933;PMS3003;30667;43.614;1.442;2022-07-06T02:39:46;4.00;3.00;1.25
44933;PMS3003;30667;43.614;1.442;2022-07-06T02:42:12;3.00;3.00;1.00
44933;PMS3003;30667;43.614;1.442;2022-07-06T02:44:38;4.00;4.00;2.00
44933;PMS3003;30667;43.614;1.442;2022-07-06T02:47:03;3.75;3.00;1.00
44933;PMS3003;30667;43.614;1.442;2022-07-06T02:49:28;4.00;3.75;1.50
44933;PMS3003;30667;43.614;1.442;2022-07-06T02:51:54;4.00;3.00;1.00
44933;PMS3003;30667;43.614;1.442;2022-07-06T02:54:19;3.75;3.75;1.00
44933;PMS3003;30667;43.614;1.442;2022-07-06T02:56:45;3.00;3.00;1.00
44933;PMS3003;30667;43.614;1.442;2022-07-06T02:59:16;3.20;3.00;1.00
44933;PMS3003;30667;43.614;1.442;2022-07-06T03:01:41;3.00;3.00;1.00
44933;PMS3003;30667;43.614;1.442;2022-07-06T03:04:07;3.00;3.00;1.00
44933;PMS3003;30667;43.614;1.442;2022-07-06T03:06:32;4.00;3.00;1.00
44933;PMS3003;30667;43.614;1.442;2022-07-06T03:08:57;3.00;3.00;2.00
44933;PMS3003;30667;43.614;1.442;2022-07-06T03:11:23;5.50;4.00;1.00
44933;PMS3003;30667;43.614;1.442;2022-07-06T03:13:48;5.00;4.00;1.75
44933;PMS3003;30667;43.614;1.442;2022-07-06T03:16:14;4.00;4.00;2.00
44933;PMS3003;30667;43.614;1.442;2022-07-06T03:18:39;4.00;4.00;2.00
44933;PMS3003;30667;43.614;1.442;2022-07-06T03:21:04;3.00;2.50;0.50
44933;PMS3003;30667;43.614;1.442;2022-07-06T03:23:30;4.00;4.00;1.00
44933;PMS3003;30667;43.614;1.442;2022-07-06T03:25:55;3.00;2.00;1.00
44933;PMS3003;30667;43.614;1.442;2022-07-06T03:28:21;4.00;4.00;1.25
44933;PMS3003;30667;43.614;1.442;2022-07-06T03:30:46;3.00;3.00;1.25
44933;PMS3003;30667;43.614;1.442;2022-07-06T03:33:11;4.00;3.25;1.50
44933;PMS3003;30667;43.614;1.442;2022-07-06T03:35:37;4.00;3.00;1.00
44933;PMS3003;30667;43.614;1.442;2022-07-06T03:38:02;4.00;3.00;1.00
44933;PMS3003;30667;43.614;1.442;2022-07-06T03:40:28;5.00;3.75;1.25
44933;PMS3003;30667;43.614;1.442;2022-07-06T03:42:53;5.00;3.00;1.50
44933;PMS3003;30667;43.614;1.442;2022-07-06T03:45:19;4.00;4.00;2.00
44933;PMS3003;30667;43.614;1.442;2022-07-06T03:47:44;3.75;3.75;2.00
44933;PMS3003;30667;43.614;1.442;2022-07-06T03:50:09;4.00;4.00;2.00
44933;PMS3003;30667;43.614;1.442;2022-07-06T03:52:35;3.50;3.50;2.00
44933;PMS3003;30667;43.614;1.442;2022-07-06T03:55:04;4.00;3.00;1.00
44933;PMS3003;30667;43.614;1.442;2022-07-06T03:57:34;3.40;3.40;2.00
44933;PMS3003;30667;43.614;1.442;2022-07-06T04:00:00;4.00;4.00;2.00
44933;PMS3003;30667;43.614;1.442;2022-07-06T04:02:26;3.00;3.00;1.00
44933;PMS3003;30667;43.614;1.442;2022-07-06T04:04:51;5.25;4.00;1.25
44933;PMS3003;30667;43.614;1.442;2022-07-06T04:07:16;4.50;4.00;1.00
44933;PMS3003;30667;43.614;1.442;2022-07-06T04:09:42;4.00;4.00;2.00
44933;PMS3003;30667;43.614;1.442;2022-07-06T04:12:07;4.00;4.00;1.25
44933;PMS3003;30667;43.614;1.442;2022-07-06T04:14:33;3.75;3.75;2.00
44933;PMS3003;30667;43.614;1.442;2022-07-06T04:17:00;4.00;4.00;2.00
44933;PMS3003;30667;43.614;1.442;2022-07-06T04:19:45;3.00;3.00;1.20
44933;PMS3003;30667;43.614;1.442;2022-07-06T04:22:10;4.75;4.00;2.00
44933;PMS3003;30667;43.614;1.442;2022-07-06T04:24:36;3.25;3.25;1.50
44933;PMS3003;30667;43.614;1.442;2022-07-06T04:27:01;5.50;4.25;1.75
44933;PMS3003;30667;43.614;1.442;2022-07-06T04:29:26;4.00;4.00;1.00
44933;PMS3003;30667;43.614;1.442;2022-07-06T04:31:52;4.00;4.00;1.00
44933;PMS3003;30667;43.614;1.442;2022-07-06T04:34:17;3.75;3.75;2.00
44933;PMS3003;30667;43.614;1.442;2022-07-06T04:36:42;4.00;4.00;2.75
44933;PMS3003;30667;43.614;1.442;2022-07-06T04:39:08;3.50;3.50;2.00
44933;PMS3003;30667;43.614;1.442;2022-07-06T04:41:33;3.50;3.50;2.00
44933;PMS3003;30667;43.614;1.442;2022-07-06T04:43:59;3.00;2.50;1.00
44933;PMS3003;30667;43.614;1.442;2022-07-06T04:46:24;4.75;4.75;2.00
44933;PMS3003;30667;43.614;1.442;2022-07-06T04:48:49;3.25;3.25;1.25
44933;PMS3003;30667;43.614;1.442;2022-07-06T04:51:15;3.00;3.00;1.00
44933;PMS3003;30667;43.614;1.442;2022-07-06T04:53:41;6.00;4.20;2.00
44933;PMS3003;30667;43.614;1.442;2022-07-06T04:56:07;4.00;4.00;2.00
44933;PMS3003;30667;43.614;1.442;2022-07-06T04:58:32;4.50;4.00;2.00
44933;PMS3003;30667;43.614;1.442;2022-07-06T05:00:57;3.75;3.75;1.50
44933;PMS3003;30667;43.614;1.442;2022-07-06T05:03:23;3.50;3.00;1.00
44933;PMS3003;30667;43.614;1.442;2022-07-06T05:05:48;3.75;3.75;1.75
44933;PMS3003;30667;43.614;1.442;2022-07-06T05:08:14;4.25;4.00;1.75
44933;PMS3003;30667;43.614;1.442;2022-07-06T05:10:39;5.00;4.00;2.00
44933;PMS3003;30667;43.614;1.442;2022-07-06T05:13:04;3.50;3.50;2.00
44933;PMS3003;30667;43.614;1.442;2022-07-06T05:15:30;4.75;3.25;1.75
44933;PMS3003;30667;43.614;1.442;2022-07-06T05:17:55;4.75;4.00;2.00
44933;PMS3003;30667;43.614;1.442;2022-07-06T05:20:21;4.75;4.75;2.75
44933;PMS3003;30667;43.614;1.442;2022-07-06T05:22:46;6.50;5.00;2.00
44933;PMS3003;30667;43.614;1.442;2022-07-06T05:25:11;4.00;4.00;2.00
44933;PMS3003;30667;43.614;1.442;2022-07-06T05:27:37;7.00;6.00;2.00
44933;PMS3003;30667;43.614;1.442;2022-07-06T05:30:02;3.00;3.00;2.00
44933;PMS3003;30667;43.614;1.442;2022-07-06T05:32:28;5.00;4.00;1.60
44933;PMS3003;30667;43.614;1.442;2022-07-06T05:34:54;4.50;4.50;2.00
44933;PMS3003;30667;43.614;1.442;2022-07-06T05:37:19;5.50;4.75;2.00
44933;PMS3003;30667;43.614;1.442;2022-07-06T05:39:44;4.00;4.00;2.00
44933;PMS3003;30667;43.614;1.442;2022-07-06T05:42:12;5.00;5.00;2.80
44933;PMS3003;30667;43.614;1.442;2022-07-06T05:44:37;5.25;5.25;2.25
44933;PMS3003;30667;43.614;1.442;2022-07-06T05:47:03;6.00;5.00;2.00
44933;PMS3003;30667;43.614;1.442;2022-07-06T05:49:47;4.40;3.60;1.00
44933;PMS3003;30667;43.614;1.442;2022-07-06T05:52:31;5.00;5.00;3.00
44933;PMS3003;30667;43.614;1.442;2022-07-06T05:54:56;4.25;4.00;2.00
44933;PMS3003;30667;43.614;1.442;2022-07-06T05:57:21;5.00;5.00;2.00
44933;PMS3003;30667;43.614;1.442;2022-07-06T05:59:47;5.00;5.00;3.00
44933;PMS3003;30667;43.614;1.442;2022-07-06T06:02:12;4.00;4.00;2.00
44933;PMS3003;30667;43.614;1.442;2022-07-06T06:04:38;4.75;4.75;2.00
44933;PMS3003;30667;43.614;1.442;2022-07-06T06:07:03;4.50;4.50;2.00
44933;PMS3003;30667;43.614;1.442;2022-07-06T06:09:29;4.50;4.00;1.50
44933;PMS3003;30667;43.614;1.442;2022-07-06T06:11:54;6.75;5.00;2.50
44933;PMS3003;30667;43.614;1.442;2022-07-06T06:14:19;5.25;4.75;2.00
44933;PMS3003;30667;43.614;1.442;2022-07-06T06:16:45;4.00;4.00;2.00
44933;PMS3003;30667;43.614;1.442;2022-07-06T06:19:10;5.25;5.25;2.25
44933;PMS3003;30667;43.614;1.442;2022-07-06T06:21:35;6.75;6.00;3.75
44933;PMS3003;30667;43.614;1.442;2022-07-06T06:24:01;4.75;4.75;2.00
44933;PMS3003;30667;43.614;1.442;2022-07-06T06:26:26;5.00;4.00;2.00
44933;PMS3003;30667;43.614;1.442;2022-07-06T06:28:52;6.00;4.75;2.50
44933;PMS3003;30667;43.614;1.442;2022-07-06T06:31:17;6.50;5.00;2.00
44933;PMS3003;30667;43.614;1.442;2022-07-06T06:33:42;5.00;5.00;2.00
44933;PMS3003;30667;43.614;1.442;2022-07-06T06:36:08;6.00;5.00;3.00
44933;PMS3003;30667;43.614;1.442;2022-07-06T06:38:33;5.75;5.75;2.75
44933;PMS3003;30667;43.614;1.442;2022-07-06T06:40:59;5.25;4.00;2.00
44933;PMS3003;30667;43.614;1.442;2022-07-06T06:43:26;4.60;4.60;2.00
44933;PMS3003;30667;43.614;1.442;2022-07-06T06:45:52;5.50;5.00;3.00
44933;PMS3003;30667;43.614;1.442;2022-07-06T06:48:17;4.00;4.00;2.00
44933;PMS3003;30667;43.614;1.442;2022-07-06T06:50:44;4.80;4.80;2.00
44933;PMS3003;30667;43.614;1.442;2022-07-06T06:53:10;4.00;4.00;2.00
44933;PMS3003;30667;43.614;1.442;2022-07-06T06:55:35;7.50;6.50;3.50
44933;PMS3003;30667;43.614;1.442;2022-07-06T06:58:01;4.50;4.50;2.00
44933;PMS3003;30667;43.614;1.442;2022-07-06T07:00:26;4.00;4.00;2.00
44933;PMS3003;30667;43.614;1.442;2022-07-06T07:02:52;4.50;4.50;2.75
44933;PMS3003;30667;43.614;1.442;2022-07-06T07:05:17;5.25;5.00;2.50
44933;PMS3003;30667;43.614;1.442;2022-07-06T07:07:42;6.00;5.00;2.50
44933;PMS3003;30667;43.614;1.442;2022-07-06T07:10:08;5.25;5.00;3.00
44933;PMS3003;30667;43.614;1.442;2022-07-06T07:12:34;5.00;5.00;2.00
44933;PMS3003;30667;43.614;1.442;2022-07-06T07:14:59;5.00;5.00;3.00
44933;PMS3003;30667;43.614;1.442;2022-07-06T07:17:25;4.20;4.00;2.00
44933;PMS3003;30667;43.614;1.442;2022-07-06T07:19:51;5.25;5.00;3.00
44933;PMS3003;30667;43.614;1.442;2022-07-06T07:22:16;5.00;5.00;3.00
44933;PMS3003;30667;43.614;1.442;2022-07-06T07:24:42;5.50;5.00;3.00
44933;PMS3003;30667;43.614;1.442;2022-07-06T07:27:07;5.50;5.00;3.00
44933;PMS3003;30667;43.614;1.442;2022-07-06T07:29:32;7.00;5.50;3.00
44933;PMS3003;30667;43.614;1.442;2022-07-06T07:31:58;5.50;4.75;2.25
44933;PMS3003;30667;43.614;1.442;2022-07-06T07:34:23;5.75;5.50;3.00
44933;PMS3003;30667;43.614;1.442;2022-07-06T07:36:49;6.00;6.00;3.50
44933;PMS3003;30667;43.614;1.442;2022-07-06T07:39:14;5.50;5.00;3.00
44933;PMS3003;30667;43.614;1.442;2022-07-06T07:41:40;4.00;3.00;2.00
44933;PMS3003;30667;43.614;1.442;2022-07-06T07:44:05;5.00;5.00;2.50
44933;PMS3003;30667;43.614;1.442;2022-07-06T07:46:31;4.60;4.60;2.80
44933;PMS3003;30667;43.614;1.442;2022-07-06T07:48:56;5.00;5.00;3.00
44933;PMS3003;30667;43.614;1.442;2022-07-06T07:51:22;6.00;6.00;3.25
44933;PMS3003;30667;43.614;1.442;2022-07-06T07:53:47;5.00;5.00;2.50
44933;PMS3003;30667;43.614;1.442;2022-07-06T07:56:12;4.75;4.75;3.00
44933;PMS3003;30667;43.614;1.442;2022-07-06T07:58:38;4.75;4.00;2.00
44933;PMS3003;30667;43.614;1.442;2022-07-06T08:01:03;4.75;4.50;2.00
44933;PMS3003;30667;43.614;1.442;2022-07-06T08:03:29;6.25;6.00;3.00
44933;PMS3003;30667;43.614;1.442;2022-07-06T08:05:56;6.00;5.00;3.00
44933;PMS3003;30667;43.614;1.442;2022-07-06T08:08:21;4.75;4.75;2.25
44933;PMS3003;30667;43.614;1.442;2022-07-06T08:10:47;5.25;5.00;2.75
44933;PMS3003;30667;43.614;1.442;2022-07-06T08:13:12;5.00;5.00;2.25
44933;PMS3003;30667;43.614;1.442;2022-07-06T08:15:39;6.00;5.60;3.00
44933;PMS3003;30667;43.614;1.442;2022-07-06T08:18:05;4.00;4.00;2.40
44933;PMS3003;30667;43.614;1.442;2022-07-06T08:20:31;6.25;5.75;3.00
44933;PMS3003;30667;43.614;1.442;2022-07-06T08:22:56;5.75;5.75;3.25
44933;PMS3003;30667;43.614;1.442;2022-07-06T08:25:22;4.50;4.00;2.50
44933;PMS3003;30667;43.614;1.442;2022-07-06T08:27:47;5.50;5.00;3.00
44933;PMS3003;30667;43.614;1.442;2022-07-06T08:30:13;6.00;5.50;2.75
44933;PMS3003;30667;43.614;1.442;2022-07-06T08:32:42;4.00;3.75;2.00
44933;PMS3003;30667;43.614;1.442;2022-07-06T08:35:09;5.00;4.20;2.60
44933;PMS3003;30667;43.614;1.442;2022-07-06T08:37:35;4.80;4.80;3.00
44933;PMS3003;30667;43.614;1.442;2022-07-06T08:40:00;5.50;5.25;3.00
44933;PMS3003;30667;43.614;1.442;2022-07-06T08:42:29;7.00;6.40;3.00
44933;PMS3003;30667;43.614;1.442;2022-07-06T08:45:00;5.80;5.00;2.80
44933;PMS3003;30667;43.614;1.442;2022-07-06T08:47:28;5.40;5.00;3.00
44933;PMS3003;30667;43.614;1.442;2022-07-06T08:49:54;5.00;5.00;3.00
44933;PMS3003;30667;43.614;1.442;2022-07-06T08:52:20;6.50;6.50;3.00
44933;PMS3003;30667;43.614;1.442;2022-07-06T08:54:47;6.60;6.00;3.00
44933;PMS3003;30667;43.614;1.442;2022-07-06T08:57:12;4.75;4.75;2.25
44933;PMS3003;30667;43.614;1.442;2022-07-06T08:59:39;8.00;6.00;3.00
44933;PMS3003;30667;43.614;1.442;2022-07-06T09:02:04;4.75;4.50;2.00
44933;PMS3003;30667;43.614;1.442;2022-07-06T09:04:31;5.00;4.25;2.00
44933;PMS3003;30667;43.614;1.442;2022-07-06T09:06:58;6.00;6.00;3.00
44933;PMS3003;30667;43.614;1.442;2022-07-06T09:09:24;5.00;5.00;3.75
44933;PMS3003;30667;43.614;1.442;2022-07-06T09:11:50;5.80;4.80;3.00
44933;PMS3003;30667;43.614;1.442;2022-07-06T09:14:15;5.25;5.25;2.00
44933;PMS3003;30667;43.614;1.442;2022-07-06T09:16:41;5.00;4.00;2.00
44933;PMS3003;30667;43.614;1.442;2022-07-06T09:19:08;4.80;4.00;2.20
44933;PMS3003;30667;43.614;1.442;2022-07-06T09:21:36;5.40;4.80;2.40
44933;PMS3003;30667;43.614;1.442;2022-07-06T09:24:02;6.00;5.40;3.40
44933;PMS3003;30667;43.614;1.442;2022-07-06T09:26:31;4.60;4.60;1.80
44933;PMS3003;30667;43.614;1.442;2022-07-06T09:28:57;4.25;4.25;2.00
44933;PMS3003;30667;43.614;1.442;2022-07-06T09:31:24;5.20;4.60;2.80
44933;PMS3003;30667;43.614;1.442;2022-07-06T09:33:57;5.00;4.00;2.40
44933;PMS3003;30667;43.614;1.442;2022-07-06T09:36:43;5.80;4.80;2.80
44933;PMS3003;30667;43.614;1.442;2022-07-06T09:39:20;7.00;5.00;3.00
44933;PMS3003;30667;43.614;1.442;2022-07-06T09:41:53;5.20;5.00;2.00
44933;PMS3003;30667;43.614;1.442;2022-07-06T09:44:20;4.80;4.80;2.00
44933;PMS3003;30667;43.614;1.442;2022-07-06T09:46:47;4.80;4.80;2.80
44933;PMS3003;30667;43.614;1.442;2022-07-06T09:49:16;5.80;5.20;2.00
44933;PMS3003;30667;43.614;1.442;2022-07-06T09:51:44;5.80;5.40;2.60
44933;PMS3003;30667;43.614;1.442;2022-07-06T09:54:11;5.00;5.00;2.80
44933;PMS3003;30667;43.614;1.442;2022-07-06T09:56:37;6.00;5.00;3.00
44933;PMS3003;30667;43.614;1.442;2022-07-06T09:59:14;6.40;5.40;2.80
44933;PMS3003;30667;43.614;1.442;2022-07-06T10:01:41;4.80;4.80;2.00
44933;PMS3003;30667;43.614;1.442;2022-07-06T10:04:07;6.00;5.00;2.80
44933;PMS3003;30667;43.614;1.442;2022-07-06T10:06:34;4.80;4.80;2.80
44933;PMS3003;30667;43.614;1.442;2022-07-06T10:09:00;5.20;4.60;2.60
44933;PMS3003;30667;43.614;1.442;2022-07-06T10:11:27;5.80;5.20;2.80
44933;PMS3003;30667;43.614;1.442;2022-07-06T10:13:57;6.00;6.00;2.80
44933;PMS3003;30667;43.614;1.442;2022-07-06T10:16:24;6.00;5.60;3.20
44933;PMS3003;30667;43.614;1.442;2022-07-06T10:18:53;5.00;5.00;3.00
44933;PMS3003;30667;43.614;1.442;2022-07-06T10:21:21;4.80;4.80;2.80
44933;PMS3003;30667;43.614;1.442;2022-07-06T10:23:48;4.80;4.80;2.80
44933;PMS3003;30667;43.614;1.442;2022-07-06T10:26:15;5.60;5.20;2.80
44933;PMS3003;30667;43.614;1.442;2022-07-06T10:28:42;5.40;5.00;2.80
44933;PMS3003;30667;43.614;1.442;2022-07-06T10:31:08;4.60;4.60;2.40
44933;PMS3003;30667;43.614;1.442;2022-07-06T10:33:34;6.00;5.80;2.80
44933;PMS3003;30667;43.614;1.442;2022-07-06T10:36:01;5.00;4.80;2.20
44933;PMS3003;30667;43.614;1.442;2022-07-06T10:38:34;5.00;4.80;2.80
44933;PMS3003;30667;43.614;1.442;2022-07-06T10:41:08;5.00;4.80;3.00
44933;PMS3003;30667;43.614;1.442;2022-07-06T10:43:38;6.00;6.00;3.80
44933;PMS3003;30667;43.614;1.442;2022-07-06T10:46:15;5.60;4.80;2.80
44933;PMS3003;30667;43.614;1.442;2022-07-06T10:48:45;7.00;5.20;3.40
44933;PMS3003;30667;43.614;1.442;2022-07-06T10:51:12;3.40;3.40;1.00
44933;PMS3003;30667;43.614;1.442;2022-07-06T10:53:49;6.00;5.00;3.00
44933;PMS3003;30667;43.614;1.442;2022-07-06T10:56:21;4.20;4.20;1.80
44933;PMS3003;30667;43.614;1.442;2022-07-06T10:59:01;4.80;4.80;2.20
44933;PMS3003;30667;43.614;1.442;2022-07-06T11:01:36;3.80;3.80;1.80
44933;PMS3003;30667;43.614;1.442;2022-07-06T11:06:28;3.00;3.00;1.00
44933;PMS3003;30667;43.614;1.442;2022-07-06T11:09:03;2.40;2.40;1.00
44933;PMS3003;30667;43.614;1.442;2022-07-06T11:14:05;3.00;2.25;0.00
44933;PMS3003;30667;43.614;1.442;2022-07-06T11:16:40;4.60;4.00;2.00
44933;PMS3003;30667;43.614;1.442;2022-07-06T11:19:28;4.80;3.80;1.80
44933;PMS3003;30667;43.614;1.442;2022-07-06T11:21:55;3.60;3.60;1.00
44933;PMS3003;30667;43.614;1.442;2022-07-06T12:17:06;4.80;4.80;2.80
44933;PMS3003;30667;43.614;1.442;2022-07-06T12:19:34;4.00;3.00;2.00
44933;PMS3003;30667;43.614;1.442;2022-07-06T12:22:00;4.00;4.00;2.00
44933;PMS3003;30667;43.614;1.442;2022-07-06T12:24:28;5.20;4.00;2.40
44933;PMS3003;30667;43.614;1.442;2022-07-06T12:26:56;5.00;4.40;2.80
44933;PMS3003;30667;43.614;1.442;2022-07-06T12:29:23;4.20;3.40;2.00
44933;PMS3003;30667;43.614;1.442;2022-07-06T12:31:50;5.00;5.00;2.00
44933;PMS3003;30667;43.614;1.442;2022-07-06T12:34:18;3.00;3.00;1.60
44933;PMS3003;30667;43.614;1.442;2022-07-06T12:36:49;4.60;4.00;2.00
44933;PMS3003;30667;43.614;1.442;2022-07-06T12:39:17;4.00;4.00;2.00
44933;PMS3003;30667;43.614;1.442;2022-07-06T12:41:51;6.00;4.80;1.60
44933;PMS3003;30667;43.614;1.442;2022-07-06T12:44:20;3.80;3.80;2.00
44933;PMS3003;30667;43.614;1.442;2022-07-06T12:46:48;4.40;3.80;1.20
44933;PMS3003;30667;43.614;1.442;2022-07-06T12:49:21;3.80;3.80;2.00
44933;PMS3003;30667;43.614;1.442;2022-07-06T12:54:35;4.00;3.60;1.60
44933;PMS3003;30667;43.614;1.442;2022-07-06T13:05:21;4.80;4.00;1.00
44933;PMS3003;30667;43.614;1.442;2022-07-06T13:07:44;3.00;3.00;1.60
44933;PMS3003;30667;43.614;1.442;2022-07-06T13:10:12;3.00;3.00;2.00
44933;PMS3003;30667;43.614;1.442;2022-07-06T13:12:39;3.00;3.00;1.00
44933;PMS3003;30667;43.614;1.442;2022-07-06T13:15:06;3.00;3.00;1.00
44933;PMS3003;30667;43.614;1.442;2022-07-06T13:17:33;2.20;2.00;0.00
44933;PMS3003;30667;43.614;1.442;2022-07-06T13:19:58;2.00;2.00;0.00
44933;PMS3003;30667;43.614;1.442;2022-07-06T13:22:24;3.00;3.00;1.00
44933;PMS3003;30667;43.614;1.442;2022-07-06T13:24:49;3.00;3.00;1.00
44933;PMS3003;30667;43.614;1.442;2022-07-06T13:27:15;2.50;2.00;0.00
44933;PMS3003;30667;43.614;1.442;2022-07-06T13:29:40;4.00;3.00;0.25
44933;PMS3003;30667;43.614;1.442;2022-07-06T13:32:06;3.00;2.75;1.00
44933;PMS3003;30667;43.614;1.442;2022-07-06T13:34:32;3.40;3.40;1.00
44933;PMS3003;30667;43.614;1.442;2022-07-06T13:37:00;2.60;2.60;0.00
44933;PMS3003;30667;43.614;1.442;2022-07-06T13:39:26;2.75;2.75;0.75
44933;PMS3003;30667;43.614;1.442;2022-07-06T13:41:52;3.00;3.00;1.00
44933;PMS3003;30667;43.614;1.442;2022-07-06T13:44:18;3.00;3.00;0.00
44933;PMS3003;30667;43.614;1.442;2022-07-06T13:46:43;2.50;2.50;1.00
44933;PMS3003;30667;43.614;1.442;2022-07-06T13:49:09;3.50;3.00;1.00
44933;PMS3003;30667;43.614;1.442;2022-07-06T13:51:34;3.00;3.00;1.00
44933;PMS3003;30667;43.614;1.442;2022-07-06T13:54:00;4.25;3.25;1.00
44933;PMS3003;30667;43.614;1.442;2022-07-06T13:56:26;2.80;2.00;0.00
44933;PMS3003;30667;43.614;1.442;2022-07-06T13:58:52;2.20;2.20;0.40
44933;PMS3003;30667;43.614;1.442;2022-07-06T14:01:19;2.20;2.20;1.00
44933;PMS3003;30667;43.614;1.442;2022-07-06T14:03:44;3.25;3.00;1.00
44933;PMS3003;30667;43.614;1.442;2022-07-06T14:06:10;2.00;1.50;0.00
44933;PMS3003;30667;43.614;1.442;2022-07-06T14:08:36;2.00;1.00;0.00
44933;PMS3003;30667;43.614;1.442;2022-07-06T14:11:03;3.40;3.40;1.40
44933;PMS3003;30667;43.614;1.442;2022-07-06T14:13:30;2.00;2.00;0.20
44933;PMS3003;30667;43.614;1.442;2022-07-06T14:15:56;2.20;2.20;0.20
44933;PMS3003;30667;43.614;1.442;2022-07-06T14:18:21;3.00;3.00;1.00
44933;PMS3003;30667;43.614;1.442;2022-07-06T14:20:47;2.50;2.00;0.00
44933;PMS3003;30667;43.614;1.442;2022-07-06T14:23:13;2.40;2.40;1.00
44933;PMS3003;30667;43.614;1.442;2022-07-06T14:25:40;2.00;2.00;1.00
44933;PMS3003;30667;43.614;1.442;2022-07-06T14:28:07;3.00;3.00;1.00
44933;PMS3003;30667;43.614;1.442;2022-07-06T14:30:34;3.00;2.60;0.60
44933;PMS3003;30667;43.614;1.442;2022-07-06T14:33:04;3.80;3.00;1.00
44933;PMS3003;30667;43.614;1.442;2022-07-06T14:35:32;3.60;3.00;1.00
44933;PMS3003;30667;43.614;1.442;2022-07-06T14:37:59;2.20;2.20;1.00
44933;PMS3003;30667;43.614;1.442;2022-07-06T14:40:24;2.00;2.00;0.00
44933;PMS3003;30667;43.614;1.442;2022-07-06T14:42:50;3.00;3.00;1.00
44933;PMS3003;30667;43.614;1.442;2022-07-06T14:45:15;3.00;3.00;1.00
44933;PMS3003;30667;43.614;1.442;2022-07-06T14:47:40;3.00;2.75;1.00
44933;PMS3003;30667;43.614;1.442;2022-07-06T14:50:06;5.00;4.75;2.00
44933;PMS3003;30667;43.614;1.442;2022-07-06T14:52:31;3.00;3.00;1.00
44933;PMS3003;30667;43.614;1.442;2022-07-06T14:54:57;2.25;2.25;0.50
44933;PMS3003;30667;43.614;1.442;2022-07-06T14:57:24;2.20;2.00;0.00
44933;PMS3003;30667;43.614;1.442;2022-07-06T14:59:50;3.00;3.00;0.80
44933;PMS3003;30667;43.614;1.442;2022-07-06T15:02:16;2.25;2.00;0.00
44933;PMS3003;30667;43.614;1.442;2022-07-06T15:04:41;2.00;2.00;0.00
44933;PMS3003;30667;43.614;1.442;2022-07-06T15:07:07;2.00;1.25;0.00
44933;PMS3003;30667;43.614;1.442;2022-07-06T15:09:32;1.75;1.75;0.00
44933;PMS3003;30667;43.614;1.442;2022-07-06T15:11:58;1.80;1.80;0.00
44933;PMS3003;30667;43.614;1.442;2022-07-06T15:14:24;3.50;2.50;0.50
44933;PMS3003;30667;43.614;1.442;2022-07-06T15:16:49;3.00;2.00;0.00
44933;PMS3003;30667;43.614;1.442;2022-07-06T15:19:16;2.80;2.80;0.20
44933;PMS3003;30667;43.614;1.442;2022-07-06T15:21:42;1.25;1.25;0.00
44933;PMS3003;30667;43.614;1.442;2022-07-06T15:24:07;2.00;2.00;0.00
44933;PMS3003;30667;43.614;1.442;2022-07-06T15:26:33;2.25;2.00;0.00
44933;PMS3003;30667;43.614;1.442;2022-07-06T15:28:59;2.00;2.00;0.00